Monday, October 21, 2019, 9:06 PM EDT
Back to Local

KEWN, New Bern, Craven County Regional Airport

Location: New Bern, NC, United States Lat: 35.068
Local Time: 9:06 PM EDT ( 1:06 GMT) Lon: -77.047
Time Zone: US/Eastern Elev: 16 ft

Show me the last for .
Show Coded

Time T Td Feel RH Dir Speed Gust Alt SLP Vis Weather Sky Remarks
2019-10-21 19:54 63 59 - 86 80° 5 - 30.09 30.09 10 OVC014 6-hr Min Temp (8pm): 63.0°F
6-hr Max Temp (8pm): 64.9°F
2019-10-21 19:45 63 59 - 86 100° 5 - 30.09 - 10 OVC014 None
2019-10-21 18:54 63 59 - 86 80° 5 - 30.08 30.07 10 OVC015 None
2019-10-21 17:54 64 59 - 83 Variable 3 - 30.08 30.07 10 OVC016 None
2019-10-21 16:54 65 59 - 81 30° 3 - 30.07 30.07 10 OVC016 None
2019-10-21 15:54 65 59 - 81 - Calm - 30.07 30.07 10 OVC016 None
2019-10-21 14:54 65 59 - 81 20° 5 - 30.06 30.06 10 OVC015 None
2019-10-21 13:54 65 59 - 81 360° 5 - 30.08 30.08 10 OVC015 6-hr Min Temp (2pm): 59.0°F
6-hr Max Temp (2pm): 64.9°F
2019-10-21 13:20 65 59 - 81 40° 7 - 30.09 - 10 OVC015 None
2019-10-21 12:54 63 59 - 86 10° 6 - 30.10 30.09 10 OVC013 None
2019-10-21 11:54 62 58 - 86 10° 5 - 30.09 30.09 10 OVC011 None
2019-10-21 10:54 61 58 - 89 20° 7 - 30.09 30.09 10 OVC010 None
2019-10-21 10:40 61 58 - 89 340° 8 - 30.09 - 10 OVC010 None
2019-10-21 09:54 60 58 - 92 360° 8 - 30.08 30.08 10 OVC009 None
2019-10-21 08:54 60 58 - 92 360° 9 - 30.06 30.06 10 OVC009 None
2019-10-21 07:54 59 57 - 93 360° 7 - 30.04 30.03 10 OVC009 24-hr Precip Total (8am): 0.08"
6-hr Min Temp (8am): 59.0°F
6-hr Max Temp (8am): 60.1°F
2019-10-21 07:28 59 57 - 93 350° 10 - 30.03 - 10 OVC009 None
2019-10-21 07:12 59 57 - 93 360° 9 - 30.02 - 10 OVC010 None
2019-10-21 06:54 59 57 - 93 350° 12 - 30.02 30.01 10 OVC009 None
2019-10-21 06:27 59 57 - 93 10° 8 - 30.01 - 10 OVC009 None
2019-10-21 05:54 59 57 - 93 350° 9 - 30.00 30.00 10 OVC010 None
2019-10-21 05:17 60 57 - 89 350° 10 - 29.98 - 10 OVC010 None
2019-10-21 05:07 60 57 - 89 340° 12 - 29.99 - 10 OVC009 None
2019-10-21 04:54 60 58 - 92 350° 8 - 29.98 29.98 10 OVC010 None
2019-10-21 03:54 60 58 - 92 330° 8 - 29.96 29.96 10 OVC014 None
2019-10-21 02:54 60 59 - 96 330° 8 - 29.95 29.95 10 OVC014 None
2019-10-21 01:54 60 58 - 92 340° 8 - 29.95 29.95 10 BKN010 OVC016 6-hr Min Temp (2am): 60.1°F
6-hr Max Temp (2am): 61.0°F
2019-10-21 00:54 60 58 - 92 340° 14 21 29.93 29.93 10 OVC012 24-hr Min Temp (1am): 60.1°F
24-hr Max Temp (1am): 81.0°F
2019-10-20 23:54 60 59 - 96 320° 9 - 29.91 29.91 10 OVC010 None
2019-10-20 22:54 61 59 - 93 330° 14 - 29.90 29.90 10 BKN011 OVC016 None
2019-10-20 21:54 61 59 - 93 310° 10 20 29.87 29.87 10 OVC010 None
2019-10-20 21:26 61 60 - 96 310° 10 - 29.85 - 10 OVC009 None
2019-10-20 21:14 61 60 - 96 320° 10 - 29.84 - 10 OVC011 None

Support USWX by starting your Amazon purchase here.